createdAt,value
2022-12-31T16:13:02.970Z,8.25
2022-12-31T16:15:33.411Z,8.41
2022-12-31T16:18:05.721Z,8.58
2022-12-31T16:20:35.042Z,8.76
2022-12-31T16:23:04.256Z,8.87
2022-12-31T16:25:33.950Z,8.96
2022-12-31T16:28:04.135Z,9.04
2022-12-31T16:30:36.634Z,9.10
2022-12-31T16:33:12.677Z,9.17
2022-12-31T16:35:41.656Z,9.21
2022-12-31T16:38:16.822Z,9.22
2022-12-31T16:41:25.211Z,9.24
2022-12-31T16:43:53.782Z,9.27
2022-12-31T16:46:27.418Z,9.29
2022-12-31T16:49:17.553Z,9.31
2022-12-31T16:51:45.910Z,9.31
2022-12-31T16:54:28.779Z,9.33
2022-12-31T16:56:59.702Z,9.36
2022-12-31T16:59:35.383Z,9.36
2022-12-31T17:02:10.358Z,9.36
2022-12-31T17:04:43.226Z,9.36
2022-12-31T17:07:30.914Z,9.32
2022-12-31T17:10:35.078Z,9.28
2022-12-31T17:13:29.652Z,9.27
2022-12-31T17:16:00.363Z,9.26
2022-12-31T17:18:36.643Z,9.26
2022-12-31T17:21:11.827Z,9.26
2022-12-31T17:23:42.411Z,9.26
2022-12-31T17:26:14.660Z,9.26
2022-12-31T17:28:47.593Z,9.21
2022-12-31T17:31:39.548Z,9.22
2022-12-31T17:34:13.933Z,9.23
2022-12-31T17:36:59.191Z,9.19
2022-12-31T17:39:40.274Z,9.16
2022-12-31T17:42:10.683Z,9.12
2022-12-31T17:44:45.563Z,9.11
2022-12-31T17:47:17.433Z,9.10
2022-12-31T17:49:46.620Z,9.06
2022-12-31T17:52:16.869Z,9.05
2022-12-31T17:54:45.101Z,9.07
2022-12-31T17:57:27.918Z,9.07
2022-12-31T17:59:56.585Z,9.11
2022-12-31T18:02:24.902Z,9.15
2022-12-31T18:04:56.365Z,9.18
2022-12-31T18:07:27.239Z,9.18
2022-12-31T18:09:55.961Z,9.17
2022-12-31T18:12:24.652Z,9.16
2022-12-31T18:14:53.224Z,9.18
2022-12-31T18:17:21.905Z,9.20
2022-12-31T18:20:09.652Z,9.22
2022-12-31T18:22:40.100Z,9.24
2022-12-31T18:25:14.329Z,9.23
2022-12-31T18:27:43.250Z,9.24
2022-12-31T18:30:12.969Z,9.24
2022-12-31T18:32:42.267Z,9.25
2022-12-31T18:35:48.572Z,9.23
2022-12-31T18:38:18.019Z,9.25
2022-12-31T18:40:55.129Z,9.24
2022-12-31T18:43:23.741Z,9.22
2022-12-31T18:45:53.052Z,9.23
2022-12-31T18:48:21.827Z,9.21
2022-12-31T18:50:51.054Z,9.19
2022-12-31T18:53:22.470Z,9.03
2022-12-31T18:55:53.502Z,8.99
2022-12-31T18:58:21.797Z,8.99
2022-12-31T19:00:51.389Z,8.95
2022-12-31T19:03:22.533Z,8.96
2022-12-31T19:05:52.711Z,8.98
2022-12-31T19:08:22.945Z,8.96
2022-12-31T19:10:52.925Z,8.94
2022-12-31T19:13:21.570Z,8.92
2022-12-31T19:15:52.330Z,8.90
2022-12-31T19:18:20.659Z,8.86
2022-12-31T19:20:49.338Z,8.83
2022-12-31T19:23:20.814Z,8.84
2022-12-31T19:25:49.838Z,8.85
2022-12-31T19:28:26.745Z,8.86
2022-12-31T19:30:54.750Z,8.82
2022-12-31T19:33:22.947Z,8.80
2022-12-31T19:35:51.251Z,8.79
2022-12-31T19:38:23.943Z,8.76
2022-12-31T19:40:53.622Z,8.72
2022-12-31T19:43:24.238Z,8.71
2022-12-31T19:45:53.169Z,8.74
2022-12-31T19:48:30.489Z,8.72
2022-12-31T19:51:01.120Z,8.72
2022-12-31T19:53:29.826Z,8.68
2022-12-31T19:55:58.407Z,8.67
2022-12-31T19:58:28.383Z,8.68
2022-12-31T20:01:02.775Z,8.66
2022-12-31T20:03:33.113Z,8.63
2022-12-31T20:06:07.839Z,8.58
2022-12-31T20:08:38.546Z,8.65
2022-12-31T20:11:13.455Z,8.68
2022-12-31T20:13:42.366Z,8.71
2022-12-31T20:16:16.109Z,8.73
2022-12-31T20:18:46.790Z,8.75
2022-12-31T20:21:19.363Z,8.69
2022-12-31T20:23:50.065Z,8.70
2022-12-31T20:26:20.143Z,8.72
2022-12-31T20:28:48.595Z,8.75
2022-12-31T20:31:19.986Z,8.70
2022-12-31T20:33:48.838Z,8.72
2022-12-31T20:36:43.400Z,8.74
2022-12-31T20:39:12.167Z,8.74
2022-12-31T20:41:40.888Z,8.76
2022-12-31T20:44:09.707Z,8.77
2022-12-31T20:46:38.476Z,8.73
2022-12-31T20:49:07.087Z,8.69
2022-12-31T20:51:35.787Z,8.74
2022-12-31T20:54:09.244Z,8.74
2022-12-31T20:56:40.194Z,8.73
2022-12-31T20:59:10.708Z,8.72
2022-12-31T21:02:11.617Z,8.72
2022-12-31T21:04:28.536Z,8.71
2022-12-31T21:06:57.338Z,8.72
2022-12-31T21:09:26.000Z,8.71
2022-12-31T21:12:12.962Z,8.72
2022-12-31T21:14:44.689Z,8.74
2022-12-31T21:17:13.776Z,8.76
2022-12-31T21:19:41.882Z,8.76
2022-12-31T21:22:10.635Z,8.77
2022-12-31T21:24:40.012Z,8.78
2022-12-31T21:27:08.410Z,8.78
2022-12-31T21:29:55.635Z,8.80
2022-12-31T21:32:26.153Z,8.81
2022-12-31T21:35:31.186Z,8.81
2022-12-31T21:37:58.953Z,8.84
2022-12-31T21:40:30.445Z,8.83
2022-12-31T21:42:59.380Z,8.80
2022-12-31T21:45:28.213Z,8.77
2022-12-31T21:48:18.546Z,8.77
2022-12-31T21:50:52.395Z,8.77
2022-12-31T21:53:26.255Z,8.79
2022-12-31T21:56:09.870Z,8.81
2022-12-31T21:58:41.401Z,8.80
2022-12-31T22:01:40.145Z,8.74
2022-12-31T22:04:28.277Z,8.60
2022-12-31T22:06:57.638Z,8.65
2022-12-31T22:09:25.807Z,8.63
2022-12-31T22:11:54.307Z,8.63
2022-12-31T22:14:22.844Z,8.64
2022-12-31T22:16:51.543Z,8.62
2022-12-31T22:19:19.859Z,8.62
2022-12-31T22:21:48.219Z,8.64
2022-12-31T22:24:16.754Z,8.65
2022-12-31T22:26:46.952Z,8.67
2022-12-31T22:29:15.833Z,8.70
2022-12-31T22:31:44.539Z,8.75
2022-12-31T22:34:12.747Z,8.76
2022-12-31T22:36:40.974Z,8.78
2022-12-31T22:39:44.428Z,8.78
2022-12-31T22:42:03.819Z,8.81
2022-12-31T22:44:31.971Z,8.80
2022-12-31T22:47:00.354Z,8.80
2022-12-31T22:49:28.648Z,8.82
2022-12-31T22:51:59.902Z,8.80
2022-12-31T22:54:31.339Z,8.80
2022-12-31T22:57:00.025Z,8.75
2022-12-31T22:59:28.329Z,8.75
2022-12-31T23:01:56.995Z,8.71
2022-12-31T23:04:25.387Z,8.70
2022-12-31T23:06:53.646Z,8.68
2022-12-31T23:09:40.832Z,8.68
2022-12-31T23:12:12.135Z,8.65
2022-12-31T23:14:59.067Z,8.64
2022-12-31T23:17:46.704Z,8.63
2022-12-31T23:20:34.947Z,8.65
2022-12-31T23:23:10.171Z,8.63
2022-12-31T23:25:41.678Z,8.61
2022-12-31T23:28:12.838Z,8.59
2022-12-31T23:30:41.672Z,8.58
2022-12-31T23:33:18.300Z,8.58
2022-12-31T23:35:47.142Z,8.56
2022-12-31T23:38:18.586Z,8.56
2022-12-31T23:40:47.474Z,8.55
2022-12-31T23:43:21.565Z,8.55
2022-12-31T23:45:53.973Z,8.54
2022-12-31T23:48:22.610Z,8.55
2022-12-31T23:50:53.990Z,8.55
2022-12-31T23:53:25.692Z,8.54
2022-12-31T23:55:54.825Z,8.55
2022-12-31T23:58:23.650Z,8.57
